Time;durP1;ratioP1;P1;durP2;ratioP2;P2;SDS_P1;SDS_P2;PMS_P1;PMS_P2;Temp;Humidity;BMP_temperature;BMP_pressure;BME280_temperature;BME280_humidity;BME280_pressure;Samples;Min_cycle;Max_cycle;Signal;HPM_P1;HPM_P2
2022/04/05 00:00:28;;;;;;;14.83;13.47;;;7.70;99.90;;;;;;5070031;28;20578;-66
2022/04/05 00:02:56;;;;;;;15.57;14.17;;;7.70;99.90;;;;;;5052751;28;20258;-67
2022/04/05 00:05:22;;;;;;;17.23;15.87;;;7.80;99.90;;;;;;5050809;28;20178;-66
2022/04/05 00:07:48;;;;;;;16.00;14.60;;;7.80;99.90;;;;;;5067280;28;20206;-66
2022/04/05 00:10:14;;;;;;;14.80;13.33;;;7.80;99.90;;;;;;5071084;28;20532;-67
2022/04/05 00:12:40;;;;;;;17.23;15.83;;;7.90;99.90;;;;;;5055688;28;20585;-67
2022/04/05 00:15:09;;;;;;;16.00;14.60;;;7.90;99.90;;;;;;5050647;28;20190;-66
2022/04/05 00:17:35;;;;;;;14.90;13.70;;;7.90;99.90;;;;;;5050507;28;20309;-67
2022/04/05 00:20:13;;;;;;;14.87;13.47;;;7.90;99.90;;;;;;5049858;28;20179;-67
2022/04/05 00:22:39;;;;;;;16.00;14.60;;;7.90;99.90;;;;;;5064408;28;20170;-66
2022/04/05 00:25:05;;;;;;;16.07;14.70;;;7.90;99.90;;;;;;5069335;28;20185;-67
2022/04/05 00:27:30;;;;;;;15.57;14.17;;;7.90;99.90;;;;;;5058107;28;20206;-66
2022/04/05 00:29:56;;;;;;;15.43;14.17;;;8.00;99.90;;;;;;5050628;28;20232;-67
2022/04/05 00:32:22;;;;;;;16.60;15.10;;;8.00;99.90;;;;;;5051484;28;20232;-66
2022/04/05 00:34:48;;;;;;;17.43;15.93;;;8.00;99.90;;;;;;5050926;28;20576;-67
2022/04/05 00:37:13;;;;;;;16.80;15.37;;;8.00;99.90;;;;;;5059406;28;20217;-67
2022/04/05 00:39:39;;;;;;;19.77;18.13;;;8.00;99.90;;;;;;5070634;28;20170;-67
2022/04/05 00:42:05;;;;;;;18.93;17.33;;;8.00;99.90;;;;;;5063674;28;20178;-66
2022/04/05 00:44:30;;;;;;;17.97;16.47;;;8.00;99.90;;;;;;5053917;28;20245;-67
2022/04/05 00:47:10;;;;;;;19.50;18.03;;;8.00;99.90;;;;;;5070468;28;20209;-67
2022/04/05 00:49:35;;;;;;;20.77;19.00;;;8.00;99.90;;;;;;5066223;28;20174;-67
2022/04/05 00:52:01;;;;;;;16.07;14.70;;;8.10;99.90;;;;;;5050417;28;20171;-67
2022/04/05 00:54:30;;;;;;;18.57;16.93;;;8.10;99.90;;;;;;5052495;28;20174;-67
2022/04/05 00:56:57;;;;;;;21.27;19.67;;;8.10;99.90;;;;;;5070090;28;20340;-67
2022/04/05 00:59:28;;;;;;;20.10;18.20;;;8.10;99.90;;;;;;5068801;28;20174;-66
2022/04/05 01:01:55;;;;;;;21.20;19.40;;;8.10;99.90;;;;;;5050034;28;20205;-67
2022/04/05 01:04:24;;;;;;;16.23;14.83;;;8.10;99.90;;;;;;5050481;28;20536;-67
2022/04/05 01:06:51;;;;;;;15.33;14.03;;;8.20;99.90;;;;;;5072795;28;20216;-66
2022/04/05 01:09:19;;;;;;;17.73;16.00;;;8.20;99.90;;;;;;5074537;28;20235;-67
2022/04/05 01:11:45;;;;;;;16.70;15.10;;;8.30;99.90;;;;;;5071439;28;20669;-67
2022/04/05 01:14:10;;;;;;;16.83;15.23;;;8.20;99.90;;;;;;5074249;28;20174;-67
2022/04/05 01:16:38;;;;;;;20.57;18.57;;;8.30;99.90;;;;;;5056008;28;20210;-67
2022/04/05 01:19:06;;;;;;;18.03;16.40;;;8.30;99.90;;;;;;5054086;28;20224;-67
2022/04/05 01:21:34;;;;;;;18.80;17.00;;;8.30;99.90;;;;;;5055128;28;20680;-67
2022/04/05 01:24:13;;;;;;;19.77;18.03;;;8.30;99.90;;;;;;5054124;28;20197;-67
2022/04/05 01:26:45;;;;;;;18.17;16.40;;;8.30;99.90;;;;;;5072778;28;20202;-67
2022/04/05 01:29:12;;;;;;;19.63;17.73;;;8.30;99.90;;;;;;5074012;28;20745;-67
2022/04/05 01:31:44;;;;;;;20.77;17.00;;;8.40;99.90;;;;;;5054993;28;20175;-67
2022/04/05 01:34:10;;;;;;;20.83;18.73;;;8.40;99.90;;;;;;5070316;28;20544;-68
2022/04/05 01:36:43;;;;;;;17.43;15.83;;;8.40;99.90;;;;;;5073464;28;20214;-67
2022/04/05 01:39:10;;;;;;;18.10;16.33;;;8.50;99.90;;;;;;5058003;28;20436;-67
2022/04/05 01:41:36;;;;;;;18.67;16.97;;;8.50;99.90;;;;;;5054096;28;20281;-67
2022/04/05 01:44:03;;;;;;;18.37;16.57;;;8.50;99.90;;;;;;5064225;28;20261;-67
2022/04/05 01:46:29;;;;;;;18.73;16.77;;;8.50;99.90;;;;;;5055165;28;20562;-66
2022/04/05 01:48:54;;;;;;;19.33;17.23;;;8.50;99.90;;;;;;5052751;28;20167;-66
2022/04/05 01:51:20;;;;;;;18.43;16.50;;;8.50;99.90;;;;;;5064915;28;20174;-67
2022/04/05 01:53:45;;;;;;;16.37;14.83;;;8.60;99.90;;;;;;5073573;28;20170;-67
2022/04/05 01:56:11;;;;;;;17.80;16.07;;;8.60;99.90;;;;;;5063730;28;20198;-67
2022/04/05 01:58:37;;;;;;;18.17;16.27;;;8.60;99.90;;;;;;5052067;28;20171;-67
2022/04/05 02:01:03;;;;;;;15.60;14.07;;;8.60;99.90;;;;;;5054519;28;20541;-67
2022/04/05 02:03:30;;;;;;;17.00;15.37;;;8.60;99.90;;;;;;5053380;28;20534;-67
2022/04/05 02:05:55;;;;;;;19.43;15.00;;;8.60;99.90;;;;;;5067334;28;20221;-67
2022/04/05 02:08:21;;;;;;;18.37;15.43;;;8.70;99.90;;;;;;5072074;28;20585;-66
2022/04/05 02:10:47;;;;;;;16.43;14.67;;;8.70;99.90;;;;;;5060287;28;20588;-66
2022/04/05 02:13:12;;;;;;;18.90;16.90;;;8.70;99.90;;;;;;5053338;28;20652;-66
2022/04/05 02:15:38;;;;;;;17.13;15.40;;;8.70;99.90;;;;;;5063555;28;20201;-67
2022/04/05 02:18:04;;;;;;;16.93;15.20;;;8.70;99.90;;;;;;5072381;28;20178;-66
2022/04/05 02:20:29;;;;;;;16.77;15.00;;;8.70;99.90;;;;;;5063403;28;20193;-68
2022/04/05 02:22:55;;;;;;;19.87;16.07;;;8.80;99.90;;;;;;5051802;28;20527;-68
2022/04/05 02:25:21;;;;;;;17.77;15.10;;;8.70;99.90;;;;;;5059118;28;20174;-67
2022/04/05 02:27:47;;;;;;;19.57;16.40;;;8.80;99.90;;;;;;5072717;28;20212;-67
2022/04/05 02:30:13;;;;;;;16.80;15.17;;;8.80;99.90;;;;;;5071270;28;20170;-67
2022/04/05 02:32:39;;;;;;;17.20;15.40;;;8.80;99.90;;;;;;5072778;28;20227;-66
2022/04/05 02:35:08;;;;;;;19.17;15.47;;;8.80;99.90;;;;;;5066787;28;20534;-67
2022/04/05 02:37:34;;;;;;;20.77;18.57;;;8.80;99.90;;;;;;5052386;28;20214;-67
2022/04/05 02:39:59;;;;;;;18.07;16.17;;;8.80;99.90;;;;;;5054996;28;20206;-67
2022/04/05 02:42:25;;;;;;;17.07;15.33;;;8.80;99.90;;;;;;5073588;28;20184;-68
2022/04/05 02:44:51;;;;;;;20.47;16.30;;;8.90;99.90;;;;;;5061918;28;20220;-67
2022/04/05 02:47:16;;;;;;;19.30;17.03;;;8.90;99.90;;;;;;5052468;28;20203;-68
2022/04/05 02:49:42;;;;;;;18.77;16.00;;;8.90;99.90;;;;;;5060976;28;20585;-67
2022/04/05 02:52:07;;;;;;;18.00;16.13;;;9.00;99.90;;;;;;5072613;28;20170;-67
2022/04/05 02:54:33;;;;;;;16.60;14.90;;;9.00;99.90;;;;;;5064951;28;20376;-67
2022/04/05 02:56:59;;;;;;;19.23;17.23;;;9.00;99.90;;;;;;5050950;28;20290;-67
2022/04/05 02:59:25;;;;;;;16.33;13.47;;;9.00;99.90;;;;;;5068239;28;20189;-67
2022/04/05 03:01:50;;;;;;;20.67;17.10;;;9.00;99.90;;;;;;5069279;28;20182;-68
2022/04/05 03:04:16;;;;;;;19.23;17.23;;;9.00;99.90;;;;;;5062938;28;20674;-67
2022/04/05 03:06:41;;;;;;;22.43;17.07;;;9.00;99.90;;;;;;5051593;28;20191;-67
2022/04/05 03:09:07;;;;;;;20.60;17.53;;;9.00;99.90;;;;;;5059750;28;20185;-67
2022/04/05 03:11:33;;;;;;;19.70;16.67;;;9.10;99.90;;;;;;5072236;28;20189;-68
2022/04/05 03:13:58;;;;;;;22.67;18.87;;;9.10;99.90;;;;;;5064726;28;20181;-67
2022/04/05 03:16:24;;;;;;;24.47;18.47;;;9.10;99.90;;;;;;5052565;28;20216;-68
2022/04/05 03:18:50;;;;;;;24.03;19.50;;;9.10;99.90;;;;;;5070623;28;20265;-67
2022/04/05 03:21:16;;;;;;;18.47;16.40;;;9.10;99.90;;;;;;5072245;28;20245;-70
2022/04/05 03:23:42;;;;;;;22.83;18.77;;;9.10;99.90;;;;;;5055267;28;20506;-71
2022/04/05 03:26:07;;;;;;;23.67;18.50;;;9.10;99.90;;;;;;5054877;28;20195;-67
2022/04/05 03:28:33;;;;;;;22.87;19.80;;;9.10;99.90;;;;;;5073749;28;20209;-69
2022/04/05 03:30:59;;;;;;;23.47;18.93;;;9.20;99.90;;;;;;5068395;28;20174;-70
2022/04/05 03:33:24;;;;;;;22.13;18.10;;;9.20;99.90;;;;;;5057906;28;20180;-70
2022/04/05 03:35:50;;;;;;;21.20;17.20;;;9.20;99.90;;;;;;5071784;28;20356;-69
2022/04/05 03:38:16;;;;;;;23.03;18.10;;;9.20;99.90;;;;;;5054285;28;20674;-68
2022/04/05 03:40:42;;;;;;;24.00;19.07;;;9.20;99.90;;;;;;5052296;28;20171;-69
2022/04/05 03:43:12;;;;;;;23.00;18.67;;;9.20;99.90;;;;;;5071380;28;20178;-70
2022/04/05 03:45:38;;;;;;;22.83;19.53;;;9.20;99.90;;;;;;5071888;28;20205;-69
2022/04/05 03:48:04;;;;;;;23.33;18.80;;;9.20;99.90;;;;;;5054191;28;20758;-70
2022/04/05 03:50:31;;;;;;;22.67;18.77;;;9.30;99.90;;;;;;5052813;28;20599;-69
2022/04/05 03:52:59;;;;;;;25.37;20.13;;;9.30;99.90;;;;;;5067184;28;20170;-69
2022/04/05 03:55:25;;;;;;;25.73;19.33;;;9.30;99.90;;;;;;5071879;28;20182;-69
2022/04/05 03:57:51;;;;;;;26.90;20.60;;;9.30;99.90;;;;;;5056777;28;20170;-67
2022/04/05 04:00:17;;;;;;;27.13;20.67;;;9.30;99.90;;;;;;5055280;28;20177;-67
2022/04/05 04:02:43;;;;;;;27.37;20.60;;;9.30;99.90;;;;;;5069740;28;20182;-67
2022/04/05 04:05:09;;;;;;;24.97;18.80;;;9.30;99.90;;;;;;5067535;28;20183;-66
2022/04/05 04:07:39;;;;;;;26.03;20.30;;;9.30;99.90;;;;;;5049571;28;20221;-65
2022/04/05 04:10:05;;;;;;;25.27;19.40;;;9.30;99.90;;;;;;5052230;28;20227;-65
2022/04/05 04:12:32;;;;;;;28.53;20.63;;;9.30;99.90;;;;;;5070861;28;20182;-67
2022/04/05 04:14:58;;;;;;;29.73;21.50;;;9.30;99.90;;;;;;5070493;28;20170;-67
2022/04/05 04:17:25;;;;;;;25.13;20.00;;;9.40;99.90;;;;;;5050853;28;20203;-66
2022/04/05 04:19:51;;;;;;;31.67;21.60;;;9.40;99.90;;;;;;5050760;28;20543;-66
2022/04/05 04:22:17;;;;;;;27.77;21.37;;;9.40;99.90;;;;;;5069240;28;20189;-66
2022/04/05 04:24:43;;;;;;;29.33;19.73;;;9.40;99.90;;;;;;5069208;28;20190;-66
2022/04/05 04:27:11;;;;;;;28.53;21.30;;;9.40;99.90;;;;;;5053703;28;20581;-66
2022/04/05 04:29:37;;;;;;;27.33;20.80;;;9.40;99.90;;;;;;5057408;28;20174;-66
2022/04/05 04:32:03;;;;;;;34.67;22.13;;;9.40;99.90;;;;;;5070993;28;20193;-66
2022/04/05 04:34:28;;;;;;;33.50;23.00;;;9.50;99.90;;;;;;5063884;28;20267;-66
2022/04/05 04:36:54;;;;;;;28.90;22.37;;;9.50;99.90;;;;;;5050496;28;20221;-66
2022/04/05 04:39:20;;;;;;;33.67;23.77;;;9.50;99.90;;;;;;5053655;28;20190;-66
2022/04/05 04:41:45;;;;;;;35.47;23.33;;;9.50;99.90;;;;;;5069356;28;20186;-68
2022/04/05 04:44:11;;;;;;;34.77;22.40;;;9.50;99.90;;;;;;5068958;28;20206;-66
2022/04/05 04:46:37;;;;;;;37.50;26.50;;;9.50;99.90;;;;;;5049939;28;20640;-65
2022/04/05 04:49:02;;;;;;;37.40;24.73;;;9.50;99.90;;;;;;5050506;28;20175;-68
2022/04/05 04:51:28;;;;;;;35.87;24.37;;;9.60;99.90;;;;;;5050685;28;20178;-68
2022/04/05 04:53:53;;;;;;;37.80;25.00;;;9.60;99.90;;;;;;5050289;28;20229;-65
2022/04/05 04:56:19;;;;;;;38.73;23.63;;;9.60;99.90;;;;;;5068275;28;20279;-67
2022/04/05 04:58:45;;;;;;;38.43;24.73;;;9.60;99.90;;;;;;5063630;28;20195;-69
2022/04/05 05:01:10;;;;;;;41.47;25.43;;;9.60;99.90;;;;;;5050013;28;20210;-66
2022/04/05 05:03:37;;;;;;;36.50;25.73;;;9.60;99.90;;;;;;5056236;28;20174;-66
2022/04/05 05:06:04;;;;;;;39.13;25.60;;;9.60;99.90;;;;;;5068617;28;20194;-68
2022/04/05 05:08:30;;;;;;;40.87;24.50;;;9.60;99.90;;;;;;5065841;28;20388;-65
2022/04/05 05:10:56;;;;;;;37.80;26.77;;;9.60;99.90;;;;;;5050386;28;20175;-65
2022/04/05 05:13:22;;;;;;;39.20;25.97;;;9.70;99.90;;;;;;5052968;28;20191;-65
2022/04/05 05:15:47;;;;;;;36.90;25.30;;;9.70;99.90;;;;;;5069839;28;20269;-65
2022/04/05 05:18:15;;;;;;;44.00;25.67;;;9.70;99.90;;;;;;5069523;28;20192;-68
2022/04/05 05:20:41;;;;;;;32.50;23.50;;;9.70;99.90;;;;;;5050373;28;20257;-66
2022/04/05 05:23:07;;;;;;;38.30;24.83;;;9.70;99.90;;;;;;5050569;28;20263;-66
2022/04/05 05:25:32;;;;;;;45.80;24.80;;;9.70;99.90;;;;;;5068782;28;20224;-65
2022/04/05 05:27:58;;;;;;;32.83;21.97;;;9.70;99.90;;;;;;5060853;28;20293;-65
2022/04/05 05:30:24;;;;;;;40.97;25.07;;;9.80;99.90;;;;;;5051643;28;20220;-65
2022/04/05 05:32:50;;;;;;;39.07;24.50;;;9.80;99.90;;;;;;5068827;28;20526;-68
2022/04/05 05:35:20;;;;;;;37.87;25.50;;;9.80;99.90;;;;;;5069744;28;20204;-66
2022/04/05 05:37:46;;;;;;;43.33;26.50;;;9.80;99.90;;;;;;5050276;28;20550;-66
2022/04/05 05:40:14;;;;;;;35.47;24.20;;;9.80;99.90;;;;;;5050249;28;20183;-66
2022/04/05 05:42:57;;;;;;;43.83;25.63;;;9.80;99.90;;;;;;5068386;28;20618;-66
2022/04/05 05:45:24;;;;;;;37.80;24.43;;;9.90;99.90;;;;;;5056737;28;20186;-66
2022/04/05 05:47:49;;;;;;;40.90;23.87;;;9.80;99.90;;;;;;5068706;28;20232;-66
2022/04/05 05:50:16;;;;;;;36.43;23.63;;;9.90;99.90;;;;;;5068813;28;20174;-66
2022/04/05 05:52:42;;;;;;;41.03;26.43;;;9.90;99.90;;;;;;5069883;28;20231;-66
2022/04/05 05:55:12;;;;;;;38.63;24.70;;;9.90;99.90;;;;;;5073281;28;20299;-66
2022/04/05 05:57:38;;;;;;;36.80;25.37;;;9.90;99.90;;;;;;5063016;28;20193;-66
2022/04/05 06:00:06;;;;;;;41.07;24.57;;;9.90;99.90;;;;;;5069544;28;20178;-66
2022/04/05 06:02:35;;;;;;;34.67;23.57;;;9.90;99.90;;;;;;5052986;28;20295;-66
2022/04/05 06:05:01;;;;;;;37.57;23.60;;;9.90;99.90;;;;;;5055324;28;20189;-66
2022/04/05 06:07:26;;;;;;;35.27;23.00;;;9.90;99.90;;;;;;5072840;28;20217;-66
2022/04/05 06:09:53;;;;;;;39.40;27.27;;;9.90;99.90;;;;;;5072179;28;20182;-66
2022/04/05 06:12:18;;;;;;;42.50;27.37;;;9.90;99.90;;;;;;5053292;28;20174;-66
2022/04/05 06:14:44;;;;;;;44.93;26.17;;;10.00;99.90;;;;;;5051291;28;20270;-66
2022/04/05 06:17:09;;;;;;;40.63;25.87;;;10.00;99.90;;;;;;5069931;28;20596;-66
2022/04/05 06:19:35;;;;;;;44.60;26.47;;;10.00;99.90;;;;;;5072768;28;20178;-66
2022/04/05 06:22:01;;;;;;;41.93;26.83;;;10.10;99.90;;;;;;5055522;28;20527;-66
2022/04/05 06:24:26;;;;;;;40.43;26.83;;;10.00;99.90;;;;;;5052935;28;20218;-66
2022/04/05 06:26:52;;;;;;;43.60;26.57;;;10.00;99.90;;;;;;5066854;28;20210;-66
2022/04/05 06:29:17;;;;;;;44.70;34.03;;;10.00;99.90;;;;;;5067724;28;20175;-66
2022/04/05 06:31:43;;;;;;;36.80;26.33;;;10.00;99.90;;;;;;5052572;28;20655;-66
2022/04/05 06:34:09;;;;;;;39.93;25.07;;;10.00;99.90;;;;;;5055162;28;20182;-66
2022/04/05 06:36:34;;;;;;;42.07;25.80;;;10.00;99.90;;;;;;5071659;28;20210;-66
2022/04/05 06:39:00;;;;;;;39.03;24.13;;;10.00;99.90;;;;;;5071568;28;20325;-66
2022/04/05 06:41:26;;;;;;;37.67;23.40;;;10.00;99.90;;;;;;5052711;28;20171;-67
2022/04/05 06:43:52;;;;;;;47.13;27.57;;;10.00;99.90;;;;;;5055368;28;20210;-66
2022/04/05 06:46:18;;;;;;;39.73;25.27;;;10.00;99.90;;;;;;5071897;28;20240;-66
2022/04/05 06:48:43;;;;;;;45.77;29.83;;;10.00;99.90;;;;;;5061850;28;20211;-66
2022/04/05 06:51:09;;;;;;;35.60;24.80;;;10.00;99.90;;;;;;5052364;28;20198;-66
2022/04/05 06:53:34;;;;;;;29.07;20.60;;;10.00;99.90;;;;;;5059954;28;20544;-66
2022/04/05 06:56:00;;;;;;;33.07;20.50;;;10.10;99.90;;;;;;5071840;28;20190;-66
2022/04/05 06:58:26;;;;;;;33.07;22.27;;;10.10;99.90;;;;;;5062702;28;20636;-66
2022/04/05 07:00:51;;;;;;;32.90;21.93;;;10.10;99.90;;;;;;5051921;28;20179;-66
2022/04/05 07:03:17;;;;;;;32.00;21.53;;;10.10;99.90;;;;;;5059264;28;20186;-67
2022/04/05 07:05:43;;;;;;;35.13;22.57;;;10.10;99.90;;;;;;5071423;28;20194;-67
2022/04/05 07:08:10;;;;;;;32.53;20.07;;;10.20;99.90;;;;;;5064222;28;20736;-67
2022/04/05 07:10:37;;;;;;;32.37;21.13;;;10.20;99.90;;;;;;5051790;28;20171;-67
2022/04/05 07:13:04;;;;;;;30.57;20.73;;;10.20;99.90;;;;;;5067335;28;20615;-66
2022/04/05 07:15:29;;;;;;;30.50;21.73;;;10.20;99.90;;;;;;5071594;28;20519;-67
2022/04/05 07:17:55;;;;;;;31.80;20.67;;;10.20;99.90;;;;;;5070829;28;20178;-67
2022/04/05 07:20:21;;;;;;;27.77;18.07;;;10.30;99.90;;;;;;5071590;28;20591;-66
2022/04/05 07:22:48;;;;;;;28.57;20.10;;;10.30;99.90;;;;;;5070961;28;20182;-67
2022/04/05 07:25:21;;;;;;;27.10;18.83;;;10.30;99.90;;;;;;5051260;28;20171;-66
2022/04/05 07:27:51;;;;;;;26.27;18.17;;;10.30;99.90;;;;;;5062836;28;20210;-67
2022/04/05 07:30:17;;;;;;;27.70;19.17;;;10.30;99.90;;;;;;5065233;28;20542;-66
2022/04/05 07:32:44;;;;;;;28.20;17.80;;;10.30;99.90;;;;;;5051384;28;20270;-67
2022/04/05 07:35:12;;;;;;;22.17;16.63;;;10.40;99.90;;;;;;5052320;28;20253;-67
2022/04/05 07:37:37;;;;;;;26.97;18.20;;;10.40;99.90;;;;;;5071294;28;20178;-67
2022/04/05 07:40:05;;;;;;;22.10;16.67;;;10.30;99.90;;;;;;5070545;28;20182;-66
2022/04/05 07:42:31;;;;;;;22.50;15.67;;;10.30;99.90;;;;;;5068266;28;20178;-66
2022/04/05 07:44:57;;;;;;;21.23;16.37;;;10.40;99.90;;;;;;5070822;28;20551;-66
2022/04/05 07:47:23;;;;;;;22.37;14.47;;;10.40;99.90;;;;;;5050010;28;20214;-66
2022/04/05 07:49:49;;;;;;;19.67;16.37;;;10.40;99.90;;;;;;5051135;28;20597;-67
2022/04/05 07:52:14;;;;;;;16.57;14.17;;;10.40;99.90;;;;;;5069715;28;20273;-66
2022/04/05 07:54:41;;;;;;;17.27;14.67;;;10.40;99.90;;;;;;5069701;28;20174;-66
2022/04/05 07:57:09;;;;;;;21.80;16.57;;;10.30;99.90;;;;;;5053834;28;20318;-67
2022/04/05 07:59:36;;;;;;;19.00;16.17;;;10.30;99.90;;;;;;5059194;28;20182;-66
2022/04/05 08:02:01;;;;;;;20.33;16.83;;;10.30;99.90;;;;;;5070896;28;20611;-66
2022/04/05 08:04:27;;;;;;;19.53;16.73;;;10.40;99.90;;;;;;5062379;28;20233;-66
2022/04/05 08:06:53;;;;;;;17.73;15.80;;;10.50;99.90;;;;;;5050835;28;20305;-67
2022/04/05 08:09:18;;;;;;;19.53;16.40;;;10.60;99.90;;;;;;5056803;28;20174;-66
2022/04/05 08:11:44;;;;;;;19.20;16.43;;;10.70;99.90;;;;;;5070711;28;20612;-66
2022/04/05 08:14:09;;;;;;;20.53;15.93;;;10.70;99.90;;;;;;5066001;28;20182;-67
2022/04/05 08:16:35;;;;;;;22.87;18.10;;;10.70;99.90;;;;;;5048373;28;20198;-67
2022/04/05 08:19:00;;;;;;;23.17;18.60;;;10.70;99.90;;;;;;5052020;28;20809;-67
2022/04/05 08:21:27;;;;;;;23.77;18.57;;;10.70;99.90;;;;;;5070670;28;20187;-67
2022/04/05 08:23:52;;;;;;;24.73;20.33;;;10.70;99.90;;;;;;5069187;28;20614;-67
2022/04/05 08:26:18;;;;;;;26.97;21.83;;;10.80;99.90;;;;;;5050118;28;20211;-67
2022/04/05 08:28:44;;;;;;;30.77;21.80;;;11.00;99.90;;;;;;5059814;28;20308;-67
2022/04/05 08:31:10;;;;;;;29.33;20.60;;;11.00;99.90;;;;;;5069309;28;20170;-67
2022/04/05 08:33:36;;;;;;;27.70;20.00;;;11.10;99.90;;;;;;5061213;28;20175;-66
2022/04/05 08:36:01;;;;;;;27.77;21.30;;;11.10;99.90;;;;;;5049269;28;20217;-67
2022/04/05 08:38:28;;;;;;;24.93;21.37;;;11.20;99.90;;;;;;5056223;28;20190;-67
2022/04/05 08:40:55;;;;;;;26.23;20.80;;;11.20;99.90;;;;;;5069811;28;20166;-66
2022/04/05 08:43:21;;;;;;;27.53;21.33;;;11.20;99.90;;;;;;5064249;28;20625;-67
2022/04/05 08:45:58;;;;;;;24.40;20.50;;;11.20;99.90;;;;;;5050004;28;20944;-67
2022/04/05 08:48:26;;;;;;;22.60;19.73;;;11.10;99.90;;;;;;5056737;28;20210;-66
2022/04/05 08:50:52;;;;;;;26.80;22.03;;;11.20;99.90;;;;;;5090794;28;20223;-66
2022/04/05 08:53:19;;;;;;;26.03;20.67;;;11.20;99.90;;;;;;5085118;28;20531;-67
2022/04/05 08:55:45;;;;;;;22.93;19.57;;;11.30;99.90;;;;;;5067862;28;20201;-67
2022/04/05 08:58:12;;;;;;;25.13;21.10;;;11.40;99.90;;;;;;5055567;28;20205;-67
2022/04/05 09:00:38;;;;;;;22.10;19.13;;;11.30;99.90;;;;;;5050162;28;20183;-67
2022/04/05 09:03:05;;;;;;;24.07;19.43;;;11.30;99.90;;;;;;5062659;28;20188;-67
2022/04/05 09:05:38;;;;;;;25.17;21.17;;;11.30;99.90;;;;;;5069897;28;20197;-67
2022/04/05 09:08:23;;;;;;;27.33;21.27;;;11.20;99.90;;;;;;5057916;28;20271;-66
2022/04/05 09:10:55;;;;;;;23.07;20.57;;;11.20;99.90;;;;;;5058361;28;20282;-66
2022/04/05 09:13:23;;;;;;;23.70;21.20;;;11.10;99.90;;;;;;5068789;28;20185;-66
2022/04/05 09:15:51;;;;;;;24.70;21.33;;;11.00;99.90;;;;;;5053066;28;20776;-66
2022/04/05 09:18:37;;;;;;;24.37;20.13;;;11.00;99.90;;;;;;5050386;28;20182;-65
2022/04/05 09:21:05;;;;;;;28.00;22.03;;;11.00;99.90;;;;;;5050619;28;20215;-66
2022/04/05 09:23:38;;;;;;;26.00;21.93;;;10.90;99.90;;;;;;5050117;28;20461;-67
2022/04/05 09:26:08;;;;;;;28.30;22.33;;;10.80;99.90;;;;;;5049995;28;20671;-67
2022/04/05 09:28:37;;;;;;;24.60;20.77;;;10.70;99.90;;;;;;5053743;28;20293;-66
2022/04/05 09:31:06;;;;;;;32.30;24.13;;;10.70;99.90;;;;;;5053639;28;20359;-67
2022/04/05 09:33:34;;;;;;;27.53;22.57;;;10.70;99.90;;;;;;5053905;28;20171;-67
2022/04/05 09:36:17;;;;;;;29.80;20.73;;;10.80;99.90;;;;;;5053836;28;20207;-67
2022/04/05 09:38:44;;;;;;;25.47;21.13;;;10.80;99.90;;;;;;5053848;28;20644;-67
2022/04/05 09:41:16;;;;;;;25.17;21.73;;;10.70;99.90;;;;;;5054152;28;20258;-67
2022/04/05 09:43:57;;;;;;;22.63;20.20;;;10.70;99.90;;;;;;5053743;28;20179;-67
2022/04/05 09:46:23;;;;;;;23.63;20.43;;;10.60;99.90;;;;;;5053562;28;20201;-66
2022/04/05 09:49:02;;;;;;;29.97;22.40;;;10.60;99.90;;;;;;5053679;28;20268;-67
2022/04/05 09:51:28;;;;;;;25.53;21.67;;;10.60;99.90;;;;;;5052579;28;20529;-66
2022/04/05 09:53:56;;;;;;;24.67;20.43;;;10.60;99.90;;;;;;5053866;28;20182;-68
2022/04/05 09:56:38;;;;;;;28.27;22.27;;;10.60;99.90;;;;;;5053229;28;20540;-67
2022/04/05 09:59:18;;;;;;;32.10;22.50;;;10.70;99.90;;;;;;5053722;28;20163;-66
2022/04/05 10:01:49;;;;;;;31.33;24.73;;;10.70;99.90;;;;;;5053270;28;20178;-66
2022/04/05 10:04:17;;;;;;;28.70;21.80;;;10.90;99.90;;;;;;5053508;28;20191;-67
2022/04/05 10:06:46;;;;;;;25.17;20.90;;;11.10;99.90;;;;;;5051555;28;20210;-67
2022/04/05 10:09:13;;;;;;;27.57;22.37;;;11.20;99.90;;;;;;5053305;28;20203;-67
2022/04/05 10:11:40;;;;;;;25.43;20.87;;;11.40;99.90;;;;;;5052013;28;20181;-68
2022/04/05 10:14:08;;;;;;;22.33;19.57;;;11.40;99.90;;;;;;5054088;28;20617;-67
2022/04/05 10:16:34;;;;;;;25.23;21.43;;;11.50;99.90;;;;;;5053058;28;20191;-67
2022/04/05 10:19:04;;;;;;;24.13;21.57;;;11.70;99.90;;;;;;5053233;28;20240;-67
2022/04/05 10:21:36;;;;;;;21.87;19.67;;;11.90;99.90;;;;;;5054644;28;20182;-68
2022/04/05 10:24:05;;;;;;;18.20;16.33;;;12.20;99.90;;;;;;5059264;28;20299;-67
2022/04/05 10:26:34;;;;;;;20.27;18.27;;;12.20;99.90;;;;;;5063469;28;20202;-69
2022/04/05 10:29:03;;;;;;;20.50;18.40;;;12.20;99.90;;;;;;5072250;28;20182;-66
2022/04/05 10:31:51;;;;;;;15.90;14.30;;;12.30;99.90;;;;;;5062575;28;20666;-67
2022/04/05 10:34:28;;;;;;;16.63;14.87;;;12.40;99.90;;;;;;5052086;28;20174;-67
2022/04/05 10:37:18;;;;;;;16.10;14.70;;;12.40;99.90;;;;;;5065282;28;20598;-66
2022/04/05 10:40:05;;;;;;;15.43;14.13;;;12.60;99.90;;;;;;5072994;28;20248;-66
2022/04/05 10:42:53;;;;;;;15.60;14.17;;;12.70;99.90;;;;;;5071164;28;20197;-66
2022/04/05 10:45:28;;;;;;;14.40;13.00;;;12.90;99.90;;;;;;5052290;28;20182;-69
2022/04/05 10:48:10;;;;;;;15.83;12.33;;;13.10;99.90;;;;;;5073360;28;20209;-67
2022/04/05 10:50:35;;;;;;;14.90;13.63;;;13.30;99.90;;;;;;5071897;28;20186;-66
2022/04/05 10:53:13;;;;;;;14.73;13.47;;;13.40;99.90;;;;;;5053470;28;20512;-67
2022/04/05 10:56:03;;;;;;;12.80;11.80;;;13.40;99.90;;;;;;5052105;28;20557;-66
2022/04/05 10:58:34;;;;;;;13.33;12.23;;;13.40;99.90;;;;;;5071641;28;20175;-66
2022/04/05 11:01:18;;;;;;;14.50;12.53;;;13.30;99.90;;;;;;5070717;28;20179;-67
2022/04/05 11:04:11;;;;;;;12.70;11.60;;;13.30;99.90;;;;;;5053001;28;20178;-67
2022/04/05 11:07:02;;;;;;;13.87;12.60;;;13.40;99.90;;;;;;5053119;28;20584;-67
2022/04/05 11:09:39;;;;;;;13.83;12.63;;;13.50;99.90;;;;;;5052758;28;20182;-67
2022/04/05 11:12:10;;;;;;;13.50;12.30;;;13.60;99.90;;;;;;5060435;28;20177;-66
2022/04/05 11:14:42;;;;;;;13.30;12.10;;;13.60;99.90;;;;;;5071862;28;20174;-67
2022/04/05 11:17:10;;;;;;;14.23;13.13;;;13.40;99.90;;;;;;5062157;28;20202;-66
2022/04/05 11:19:38;;;;;;;13.87;12.50;;;13.40;99.90;;;;;;5051958;28;20696;-67
2022/04/05 11:22:05;;;;;;;13.10;11.90;;;13.40;99.90;;;;;;5060567;28;20178;-66
2022/04/05 11:24:54;;;;;;;14.77;13.57;;;13.20;99.90;;;;;;5071776;28;20185;-66
2022/04/05 11:27:45;;;;;;;14.53;13.33;;;13.00;99.90;;;;;;5060209;28;20211;-66
2022/04/05 11:30:25;;;;;;;14.87;13.47;;;12.80;99.90;;;;;;5052456;28;20175;-67
2022/04/05 11:33:09;;;;;;;14.47;13.07;;;12.70;99.90;;;;;;5064655;28;20446;-67
2022/04/05 11:35:38;;;;;;;14.43;13.13;;;12.70;99.90;;;;;;5071536;28;20245;-66
2022/04/05 11:38:05;;;;;;;14.13;12.77;;;12.70;99.90;;;;;;5056399;28;20187;-65
2022/04/05 11:40:31;;;;;;;14.87;13.47;;;12.60;99.90;;;;;;5050752;28;20178;-66
2022/04/05 11:43:03;;;;;;;15.73;14.23;;;12.50;99.90;;;;;;5065376;28;20217;-66
2022/04/05 11:45:29;;;;;;;15.57;13.87;;;12.50;99.90;;;;;;5070714;28;20202;-67
2022/04/05 11:47:56;;;;;;;14.73;13.33;;;12.50;99.90;;;;;;5058088;28;20313;-66
2022/04/05 11:50:22;;;;;;;13.87;12.57;;;12.50;99.90;;;;;;5050538;28;20217;-66
2022/04/05 11:52:48;;;;;;;13.30;12.10;;;12.40;99.90;;;;;;5062401;28;20206;-66
2022/04/05 11:58:09;;;;;;;13.37;12.13;;;12.30;99.90;;;;;;5057547;28;20186;-66
2022/04/05 12:00:52;;;;;;;13.53;12.43;;;12.30;99.90;;;;;;5050752;28;20175;-67
2022/04/05 12:03:18;;;;;;;13.93;12.63;;;12.30;99.90;;;;;;5065133;28;20205;-67
2022/04/05 12:05:45;;;;;;;14.17;13.07;;;12.30;99.90;;;;;;5071975;28;20190;-67
2022/04/05 12:08:12;;;;;;;15.53;14.03;;;12.20;99.90;;;;;;5058056;28;20269;-67
2022/04/05 12:10:40;;;;;;;15.27;13.93;;;12.20;99.90;;;;;;5060147;28;20540;-67
2022/04/05 12:13:05;;;;;;;14.87;13.57;;;12.20;99.90;;;;;;5069668;28;20260;-67
2022/04/05 12:15:33;;;;;;;14.53;13.30;;;12.20;99.90;;;;;;5064267;28;20289;-67
2022/04/05 12:18:17;;;;;;;13.90;12.70;;;12.20;99.90;;;;;;5051840;28;20178;-68
2022/04/05 12:21:04;;;;;;;14.13;12.93;;;12.20;99.90;;;;;;5070409;28;20170;-67
2022/04/05 12:23:34;;;;;;;13.67;12.57;;;12.30;99.90;;;;;;5065958;28;20178;-67
2022/04/05 12:26:21;;;;;;;15.90;14.40;;;12.40;99.90;;;;;;5051064;28;20739;-66
2022/04/05 12:28:52;;;;;;;13.60;12.40;;;12.40;99.90;;;;;;5064817;28;20205;-67
2022/04/05 12:31:20;;;;;;;12.87;11.80;;;12.60;99.90;;;;;;5070783;28;20548;-67
2022/04/05 12:33:58;;;;;;;12.40;11.30;;;12.60;99.90;;;;;;5055260;28;20186;-67
2022/04/05 12:36:26;;;;;;;11.97;10.97;;;12.70;99.90;;;;;;5050116;28;20206;-67
2022/04/05 12:38:51;;;;;;;13.13;12.03;;;12.60;99.90;;;;;;5063934;28;20193;-66